Time;durP1;ratioP1;P1;durP2;ratioP2;P2;SDS_P1;SDS_P2;PMS_P1;PMS_P2;Temp;Humidity;BMP_temperature;BMP_pressure;BME280_temperature;BME280_humidity;BME280_pressure;Samples;Min_cycle;Max_cycle;Signal;HPM_P1;HPM_P2
2020/12/01 00:01:34;;;;;;;39.53;5.22;;;;;;;;;;5055412;28;20025;-45
2020/12/01 00:04:01;;;;;;;63.47;6.03;;;;;;;;;;5059925;28;20009;-49
2020/12/01 00:06:31;;;;;;;43.90;5.20;;;;;;;;;;5058850;28;20678;-50
2020/12/01 00:08:58;;;;;;;32.22;4.60;;;;;;;;;;5061300;28;20028;-50
2020/12/01 00:11:25;;;;;;;34.95;3.70;;;;;;;;;;5059597;28;20025;-44
2020/12/01 00:13:52;;;;;;;36.72;4.15;;;;;;;;;;5052392;28;20027;-52
2020/12/01 00:16:19;;;;;;;48.95;4.97;;;;;;;;;;5059059;28;20021;-48
2020/12/01 00:18:46;;;;;;;35.97;4.97;;;;;;;;;;5052572;28;20055;-47
2020/12/01 00:21:15;;;;;;;32.75;4.25;;;;;;;;;;5055156;28;20025;-50
2020/12/01 00:23:42;;;;;;;49.83;4.65;;;;;;;;;;5055545;28;20027;-46
2020/12/01 00:26:09;;;;;;;38.60;4.05;;;;;;;;;;5057786;28;20028;-46
2020/12/01 00:28:37;;;;;;;47.70;4.60;;;;;;;;;;5057245;28;20029;-46
2020/12/01 00:31:04;;;;;;;43.63;5.05;;;;;;;;;;5070318;28;20020;-44
2020/12/01 00:33:31;;;;;;;54.00;4.95;;;;;;;;;;5062776;28;20037;-45
2020/12/01 00:35:58;;;;;;;47.78;4.28;;;;;;;;;;5052572;28;20021;-43
2020/12/01 00:38:25;;;;;;;20.52;2.97;;;;;;;;;;5060228;28;20016;-47
2020/12/01 00:40:52;;;;;;;35.03;4.75;;;;;;;;;;5054320;28;20043;-45
2020/12/01 00:43:19;;;;;;;28.13;3.80;;;;;;;;;;5053711;28;20036;-49
2020/12/01 00:45:46;;;;;;;31.27;3.70;;;;;;;;;;5063001;28;20025;-44
2020/12/01 00:48:15;;;;;;;36.33;3.67;;;;;;;;;;5053925;28;20040;-43
2020/12/01 00:50:42;;;;;;;37.90;4.30;;;;;;;;;;5052712;28;20032;-46
2020/12/01 00:53:10;;;;;;;32.30;3.95;;;;;;;;;;5056573;28;20048;-44
2020/12/01 00:55:37;;;;;;;30.15;4.55;;;;;;;;;;5050981;28;20029;-45
2020/12/01 00:58:04;;;;;;;45.83;5.40;;;;;;;;;;5056557;28;20107;-49
2020/12/01 01:00:32;;;;;;;54.97;5.75;;;;;;;;;;5049814;28;20025;-44
2020/12/01 01:02:59;;;;;;;55.28;5.70;;;;;;;;;;5050706;28;20025;-48
2020/12/01 01:05:27;;;;;;;53.53;7.63;;;;;;;;;;5057881;28;20032;-45
2020/12/01 01:07:54;;;;;;;45.03;6.13;;;;;;;;;;5053552;28;20020;-47
2020/12/01 01:10:24;;;;;;;67.55;6.07;;;;;;;;;;5055642;28;20079;-45
2020/12/01 01:12:51;;;;;;;68.25;7.43;;;;;;;;;;5054344;28;20060;-45
2020/12/01 01:15:19;;;;;;;81.55;7.18;;;;;;;;;;5062747;28;20044;-44
2020/12/01 01:17:46;;;;;;;58.53;7.55;;;;;;;;;;5065829;28;20449;-45
2020/12/01 01:20:13;;;;;;;49.70;7.15;;;;;;;;;;5052341;28;20036;-45
2020/12/01 01:22:40;;;;;;;47.10;7.88;;;;;;;;;;5061613;28;20025;-43
2020/12/01 01:25:08;;;;;;;52.05;9.40;;;;;;;;;;5061988;28;20032;-45
2020/12/01 01:27:35;;;;;;;38.60;8.88;;;;;;;;;;5068126;28;20073;-43
2020/12/01 01:30:02;;;;;;;56.13;12.63;;;;;;;;;;5060480;28;20051;-44
2020/12/01 01:32:29;;;;;;;34.67;10.77;;;;;;;;;;5047129;28;20060;-44
2020/12/01 01:34:56;;;;;;;49.28;12.98;;;;;;;;;;5048432;28;20546;-44
2020/12/01 01:37:23;;;;;;;46.30;13.10;;;;;;;;;;5049668;28;20079;-44
2020/12/01 01:39:50;;;;;;;42.00;12.68;;;;;;;;;;5049024;28;20025;-47
2020/12/01 01:42:17;;;;;;;60.10;14.13;;;;;;;;;;5051162;28;20021;-45
2020/12/01 01:44:44;;;;;;;49.65;15.65;;;;;;;;;;5066871;28;20357;-44
2020/12/01 01:47:19;;;;;;;45.38;13.88;;;;;;;;;;5059978;28;20079;-44
2020/12/01 01:49:48;;;;;;;63.83;18.58;;;;;;;;;;5056820;28;20372;-45
2020/12/01 01:52:23;;;;;;;47.63;15.93;;;;;;;;;;5063767;28;20064;-45
2020/12/01 01:54:50;;;;;;;70.05;16.45;;;;;;;;;;5053254;28;20035;-46
2020/12/01 01:57:17;;;;;;;46.33;15.32;;;;;;;;;;5052786;28;20387;-45
2020/12/01 01:59:47;;;;;;;53.03;16.38;;;;;;;;;;5056317;28;20020;-46
2020/12/01 02:02:14;;;;;;;51.88;16.75;;;;;;;;;;5059384;28;20036;-47
2020/12/01 02:04:41;;;;;;;60.47;18.08;;;;;;;;;;5054014;28;20017;-45
2020/12/01 02:07:08;;;;;;;48.38;14.52;;;;;;;;;;5069213;28;20033;-44
2020/12/01 02:09:48;;;;;;;42.40;14.27;;;;;;;;;;5070215;28;20055;-45
2020/12/01 02:12:16;;;;;;;42.38;13.85;;;;;;;;;;5063680;28;20123;-45
2020/12/01 02:14:46;;;;;;;37.83;12.88;;;;;;;;;;5062895;28;20478;-43
2020/12/01 02:17:25;;;;;;;38.97;12.98;;;;;;;;;;5053267;28;20427;-46
2020/12/01 02:19:53;;;;;;;50.67;14.45;;;;;;;;;;5065058;28;20068;-46
2020/12/01 02:22:21;;;;;;;43.38;11.73;;;;;;;;;;5060040;28;20012;-48
2020/12/01 02:24:48;;;;;;;34.72;7.55;;;;;;;;;;5062052;28;20021;-47
2020/12/01 02:27:16;;;;;;;27.20;4.95;;;;;;;;;;5056009;28;20029;-47
2020/12/01 02:29:45;;;;;;;24.75;3.83;;;;;;;;;;5063056;28;20092;-46
2020/12/01 02:32:13;;;;;;;19.42;2.88;;;;;;;;;;5060902;28;20032;-49
2020/12/01 02:34:43;;;;;;;20.10;2.63;;;;;;;;;;5061149;28;20017;-47
2020/12/01 02:37:11;;;;;;;16.95;2.90;;;;;;;;;;5056936;28;20112;-45
2020/12/01 02:39:38;;;;;;;27.08;3.70;;;;;;;;;;5053992;28;20025;-45
2020/12/01 02:42:08;;;;;;;25.70;3.05;;;;;;;;;;5054098;28;20048;-45
2020/12/01 02:44:35;;;;;;;26.63;2.90;;;;;;;;;;5070399;28;20478;-46
2020/12/01 02:47:03;;;;;;;28.30;3.35;;;;;;;;;;5062366;28;20025;-46
2020/12/01 02:49:30;;;;;;;18.75;2.40;;;;;;;;;;5061023;28;20082;-45
2020/12/01 02:51:57;;;;;;;15.75;2.58;;;;;;;;;;5058692;28;20076;-45
2020/12/01 02:54:24;;;;;;;25.58;2.97;;;;;;;;;;5057868;28;20021;-45
2020/12/01 02:56:51;;;;;;;25.13;3.20;;;;;;;;;;5054396;28;20060;-47
2020/12/01 02:59:18;;;;;;;24.52;2.85;;;;;;;;;;5053410;28;20478;-46
2020/12/01 03:01:46;;;;;;;22.58;3.17;;;;;;;;;;5053739;28;20100;-47
2020/12/01 03:04:13;;;;;;;17.25;3.00;;;;;;;;;;5053769;28;20033;-46
2020/12/01 03:06:40;;;;;;;19.73;3.05;;;;;;;;;;5053682;28;20021;-47
2020/12/01 03:09:09;;;;;;;19.38;2.55;;;;;;;;;;5053295;28;20029;-45
2020/12/01 03:11:36;;;;;;;15.43;2.20;;;;;;;;;;5053069;28;20429;-46
2020/12/01 03:14:06;;;;;;;19.88;2.88;;;;;;;;;;5053602;28;20029;-45
2020/12/01 03:16:33;;;;;;;15.20;2.22;;;;;;;;;;5066731;28;20411;-45
2020/12/01 03:19:00;;;;;;;23.25;2.60;;;;;;;;;;5080519;28;20016;-45
2020/12/01 03:21:27;;;;;;;14.95;1.40;;;;;;;;;;5092480;28;20027;-46
2020/12/01 03:23:54;;;;;;;11.30;1.73;;;;;;;;;;5093033;28;20061;-45
2020/12/01 03:26:21;;;;;;;13.10;1.98;;;;;;;;;;5092253;28;20108;-47
2020/12/01 03:28:48;;;;;;;8.95;1.60;;;;;;;;;;5092958;28;20081;-45
2020/12/01 03:31:18;;;;;;;11.60;1.20;;;;;;;;;;5091038;28;20487;-45
2020/12/01 03:33:45;;;;;;;13.07;1.38;;;;;;;;;;5072453;28;20433;-47
2020/12/01 03:36:12;;;;;;;14.18;1.25;;;;;;;;;;5070667;28;20082;-45
2020/12/01 03:38:39;;;;;;;12.30;1.20;;;;;;;;;;5072143;28;20563;-45
2020/12/01 03:41:06;;;;;;;16.30;1.58;;;;;;;;;;5072377;28;20119;-47
2020/12/01 03:43:34;;;;;;;13.18;1.65;;;;;;;;;;5072137;28;20029;-46
2020/12/01 03:46:01;;;;;;;72.63;4.95;;;;;;;;;;5072075;28;20059;-45
2020/12/01 03:48:28;;;;;;;16.08;2.17;;;;;;;;;;5070070;28;20012;-48
2020/12/01 03:50:54;;;;;;;13.55;1.42;;;;;;;;;;5071763;28;20613;-47
2020/12/01 03:53:21;;;;;;;16.90;1.92;;;;;;;;;;5070822;28;20029;-47
2020/12/01 03:55:50;;;;;;;7.55;1.45;;;;;;;;;;5052002;28;20017;-47
2020/12/01 03:58:17;;;;;;;15.90;2.05;;;;;;;;;;5051441;28;20404;-47
2020/12/01 04:00:44;;;;;;;21.27;1.90;;;;;;;;;;5051664;28;20079;-47
2020/12/01 04:03:11;;;;;;;18.45;2.13;;;;;;;;;;5049572;28;20116;-51
2020/12/01 04:05:38;;;;;;;16.75;1.88;;;;;;;;;;5050812;28;20029;-49
2020/12/01 04:08:08;;;;;;;7.75;1.50;;;;;;;;;;5051499;28;20009;-46
2020/12/01 04:10:36;;;;;;;13.02;1.50;;;;;;;;;;5051842;28;20370;-46
2020/12/01 04:13:03;;;;;;;12.90;1.75;;;;;;;;;;5051279;28;20090;-47
2020/12/01 04:15:30;;;;;;;14.57;1.30;;;;;;;;;;5051408;28;20079;-47
2020/12/01 04:17:57;;;;;;;12.93;1.50;;;;;;;;;;5050355;28;20044;-46
2020/12/01 04:20:25;;;;;;;11.90;1.38;;;;;;;;;;5049605;28;20087;-45
2020/12/01 04:22:52;;;;;;;8.15;1.23;;;;;;;;;;5057241;28;20435;-47
2020/12/01 04:25:20;;;;;;;9.45;1.05;;;;;;;;;;5063814;28;20465;-46
2020/12/01 04:27:48;;;;;;;10.00;1.52;;;;;;;;;;5050417;28;20021;-45
2020/12/01 04:30:15;;;;;;;10.75;1.27;;;;;;;;;;5049689;28;20023;-47
2020/12/01 04:32:42;;;;;;;8.48;1.40;;;;;;;;;;5049954;28;20040;-46
2020/12/01 04:35:09;;;;;;;10.15;1.55;;;;;;;;;;5050337;28;20033;-47
2020/12/01 04:37:36;;;;;;;18.70;2.40;;;;;;;;;;5051272;28;20439;-47
2020/12/01 04:40:05;;;;;;;14.68;1.40;;;;;;;;;;5050379;28;20028;-44
2020/12/01 04:42:32;;;;;;;10.25;1.20;;;;;;;;;;5051039;28;20037;-46
2020/12/01 04:45:08;;;;;;;7.90;1.58;;;;;;;;;;5051131;28;20040;-45
2020/12/01 04:47:37;;;;;;;10.02;0.88;;;;;;;;;;5049072;28;20477;-47
2020/12/01 04:50:09;;;;;;;10.18;1.08;;;;;;;;;;5050720;28;20055;-46
2020/12/01 04:52:36;;;;;;;6.82;0.95;;;;;;;;;;5048857;28;20048;-45
2020/12/01 04:55:21;;;;;;;8.25;1.15;;;;;;;;;;5051095;28;20391;-46
2020/12/01 04:57:50;;;;;;;3.50;0.95;;;;;;;;;;5050297;28;20096;-45
2020/12/01 05:00:22;;;;;;;4.45;0.95;;;;;;;;;;5051160;28;20397;-47
2020/12/01 05:02:59;;;;;;;10.80;1.10;;;;;;;;;;5050665;28;20021;-46
2020/12/01 05:06:04;;;;;;;7.20;1.10;;;;;;;;;;5050332;28;20455;-49
2020/12/01 05:08:40;;;;;;;11.10;1.00;;;;;;;;;;5049363;28;20039;-45
2020/12/01 05:11:15;;;;;;;4.35;0.88;;;;;;;;;;5050503;28;20017;-48
2020/12/01 05:13:42;;;;;;;7.75;0.93;;;;;;;;;;5050019;28;20512;-47
2020/12/01 05:16:22;;;;;;;5.75;0.90;;;;;;;;;;5059347;28;20052;-49
2020/12/01 05:18:49;;;;;;;6.95;0.98;;;;;;;;;;5069587;28;20040;-47
2020/12/01 05:21:17;;;;;;;13.80;1.15;;;;;;;;;;5069643;28;20032;-46
2020/12/01 05:23:49;;;;;;;7.00;1.10;;;;;;;;;;5070529;28;20021;-48
2020/12/01 05:26:18;;;;;;;4.43;1.05;;;;;;;;;;5071188;28;20445;-49
2020/12/01 05:28:44;;;;;;;8.48;1.02;;;;;;;;;;5054049;28;20024;-47
2020/12/01 05:31:12;;;;;;;6.93;1.20;;;;;;;;;;5050872;28;20025;-47
2020/12/01 05:33:39;;;;;;;4.18;0.90;;;;;;;;;;5050390;28;20064;-47
2020/12/01 05:36:20;;;;;;;5.68;0.82;;;;;;;;;;5052767;28;20025;-45
2020/12/01 05:39:01;;;;;;;7.80;1.20;;;;;;;;;;5053288;28;20017;-45
2020/12/01 05:41:32;;;;;;;11.70;0.90;;;;;;;;;;5053948;28;20048;-47
2020/12/01 05:44:04;;;;;;;10.70;1.00;;;;;;;;;;5054235;28;20021;-45
2020/12/01 05:46:51;;;;;;;12.55;1.30;;;;;;;;;;5053631;28;20038;-46
2020/12/01 05:49:36;;;;;;;8.77;1.13;;;;;;;;;;5053709;28;20111;-46
2020/12/01 05:52:11;;;;;;;7.45;1.02;;;;;;;;;;5053615;28;20080;-46
2020/12/01 05:54:40;;;;;;;4.53;0.80;;;;;;;;;;5054411;28;20056;-45
2020/12/01 05:57:21;;;;;;;9.18;0.82;;;;;;;;;;5053815;28;20050;-46
2020/12/01 06:00:17;;;;;;;6.68;1.27;;;;;;;;;;5053682;28;20388;-47
2020/12/01 06:03:09;;;;;;;5.93;0.95;;;;;;;;;;5045745;28;20495;-46
2020/12/01 06:05:41;;;;;;;9.35;1.05;;;;;;;;;;5053515;28;20416;-47
2020/12/01 06:08:17;;;;;;;11.60;1.40;;;;;;;;;;5061895;28;20070;-47
2020/12/01 06:10:46;;;;;;;7.10;1.10;;;;;;;;;;5072389;28;20056;-51
2020/12/01 06:13:25;;;;;;;6.10;1.00;;;;;;;;;;5072921;28;20041;-50
2020/12/01 06:16:12;;;;;;;11.68;1.10;;;;;;;;;;5071862;28;20029;-52
2020/12/01 06:18:52;;;;;;;7.13;0.90;;;;;;;;;;5051847;28;20039;-51
2020/12/01 06:21:28;;;;;;;3.63;1.02;;;;;;;;;;5053126;28;20036;-51
2020/12/01 06:24:17;;;;;;;9.27;1.08;;;;;;;;;;5053481;28;20440;-51
2020/12/01 06:26:59;;;;;;;5.70;0.85;;;;;;;;;;5053263;28;20032;-52
2020/12/01 06:29:46;;;;;;;8.90;0.80;;;;;;;;;;5053622;28;20043;-45
2020/12/01 06:32:16;;;;;;;10.77;1.65;;;;;;;;;;5053188;28;20112;-52
2020/12/01 06:35:01;;;;;;;6.82;0.98;;;;;;;;;;5052860;28;20029;-50
2020/12/01 06:37:43;;;;;;;6.53;0.93;;;;;;;;;;5053007;28;20100;-50
2020/12/01 06:40:10;;;;;;;10.35;0.95;;;;;;;;;;5066837;28;20054;-47
2020/12/01 06:42:46;;;;;;;12.68;1.30;;;;;;;;;;5061333;28;20025;-51
2020/12/01 06:45:13;;;;;;;6.00;0.90;;;;;;;;;;5052342;28;20021;-51
2020/12/01 06:47:40;;;;;;;7.32;1.10;;;;;;;;;;5061822;28;20017;-47
2020/12/01 06:50:10;;;;;;;7.47;0.82;;;;;;;;;;5063367;28;20060;-51
2020/12/01 06:52:37;;;;;;;8.07;1.15;;;;;;;;;;5051735;28;20091;-50
2020/12/01 06:55:04;;;;;;;10.13;1.52;;;;;;;;;;5052622;28;20527;-50
2020/12/01 06:57:33;;;;;;;7.38;0.95;;;;;;;;;;5052975;28;20037;-50
2020/12/01 07:00:00;;;;;;;4.03;0.80;;;;;;;;;;5052539;28;20029;-51
2020/12/01 07:02:37;;;;;;;4.63;1.00;;;;;;;;;;5052712;28;20492;-50
2020/12/01 07:05:29;;;;;;;6.68;0.95;;;;;;;;;;5052014;28;20041;-48
2020/12/01 07:07:56;;;;;;;9.07;1.38;;;;;;;;;;5052324;28;20119;-47
2020/12/01 07:10:23;;;;;;;11.05;0.98;;;;;;;;;;5052190;28;20088;-50
2020/12/01 07:13:09;;;;;;;2.90;0.88;;;;;;;;;;5052917;28;20112;-49
2020/12/01 07:15:38;;;;;;;10.45;1.30;;;;;;;;;;5051756;28;20361;-49
2020/12/01 07:18:16;;;;;;;9.32;1.10;;;;;;;;;;5053381;28;20079;-50
2020/12/01 07:21:02;;;;;;;4.45;0.90;;;;;;;;;;5071917;28;20043;-48
2020/12/01 07:23:35;;;;;;;10.65;1.55;;;;;;;;;;5073037;28;20035;-48
2020/12/01 07:26:16;;;;;;;8.18;1.10;;;;;;;;;;5070191;28;20429;-48
2020/12/01 07:28:48;;;;;;;9.27;1.73;;;;;;;;;;5051876;28;21799;-45
2020/12/01 07:31:22;;;;;;;10.25;1.40;;;;;;;;;;5051449;28;20489;-47
2020/12/01 07:33:54;;;;;;;3.78;0.70;;;;;;;;;;5051123;28;20127;-50
2020/12/01 07:36:36;;;;;;;6.78;0.90;;;;;;;;;;5050815;28;20031;-47
2020/12/01 07:39:10;;;;;;;9.85;1.10;;;;;;;;;;5051976;28;20428;-50
2020/12/01 07:41:45;;;;;;;13.15;1.13;;;;;;;;;;5051148;28;20025;-47
2020/12/01 07:44:14;;;;;;;11.65;1.00;;;;;;;;;;5050815;28;20055;-50
2020/12/01 07:49:19;;;;;;;11.27;1.00;;;;;;;;;;5051793;28;20441;-51
2020/12/01 07:51:47;;;;;;;9.02;1.45;;;;;;;;;;5050690;28;20502;-47
2020/12/01 07:54:25;;;;;;;6.28;1.10;;;;;;;;;;5050159;28;20513;-47
2020/12/01 07:56:52;;;;;;;10.27;1.10;;;;;;;;;;5050627;28;20032;-49
2020/12/01 07:59:19;;;;;;;14.13;1.88;;;;;;;;;;5071617;28;20681;-46
2020/12/01 08:01:46;;;;;;;7.15;1.23;;;;;;;;;;5051516;28;20025;-48
2020/12/01 08:04:16;;;;;;;8.90;1.50;;;;;;;;;;5067436;28;20027;-47
2020/12/01 08:06:43;;;;;;;8.52;1.02;;;;;;;;;;5050609;28;20032;-49
2020/12/01 08:09:13;;;;;;;10.00;1.15;;;;;;;;;;5048825;28;20040;-48
2020/12/01 08:11:43;;;;;;;11.25;1.63;;;;;;;;;;5050879;28;20025;-48
2020/12/01 08:14:11;;;;;;;22.38;2.28;;;;;;;;;;5064384;28;20048;-46
2020/12/01 08:16:38;;;;;;;16.73;1.63;;;;;;;;;;5071807;28;20495;-47
2020/12/01 08:19:05;;;;;;;13.38;2.20;;;;;;;;;;5059465;28;20391;-47
2020/12/01 08:21:41;;;;;;;27.02;2.88;;;;;;;;;;5049640;28;20087;-47
2020/12/01 08:24:11;;;;;;;12.45;1.33;;;;;;;;;;5051473;28;20036;-50
2020/12/01 08:26:40;;;;;;;12.75;1.60;;;;;;;;;;5052021;28;20021;-52
2020/12/01 08:29:10;;;;;;;10.40;1.38;;;;;;;;;;5050482;28;20372;-47
2020/12/01 08:31:39;;;;;;;15.25;1.63;;;;;;;;;;5050702;28;20036;-47
2020/12/01 08:34:18;;;;;;;13.43;1.45;;;;;;;;;;5051481;28;20120;-51
2020/12/01 08:37:02;;;;;;;9.98;1.40;;;;;;;;;;5051195;28;20446;-48
2020/12/01 08:39:33;;;;;;;11.90;1.48;;;;;;;;;;5049270;28;20033;-47
2020/12/01 08:42:15;;;;;;;13.02;1.17;;;;;;;;;;5051291;28;20024;-48
2020/12/01 08:44:53;;;;;;;6.93;1.50;;;;;;;;;;5051104;28;20033;-46
2020/12/01 08:47:24;;;;;;;5.50;1.02;;;;;;;;;;5051644;28;20017;-46
2020/12/01 08:49:52;;;;;;;14.90;1.33;;;;;;;;;;5050979;28;20053;-47
2020/12/01 08:52:27;;;;;;;16.30;1.90;;;;;;;;;;5050895;28;20554;-49
2020/12/01 08:54:57;;;;;;;11.80;1.50;;;;;;;;;;5050891;28;20028;-50
2020/12/01 08:57:34;;;;;;;8.63;1.30;;;;;;;;;;5051256;28;20024;-49
2020/12/01 09:00:14;;;;;;;12.98;1.17;;;;;;;;;;5050889;28;20082;-49
2020/12/01 09:02:43;;;;;;;10.05;1.33;;;;;;;;;;5051260;28;20044;-47
2020/12/01 09:05:20;;;;;;;11.65;1.08;;;;;;;;;;5050962;28;20043;-47
2020/12/01 09:07:50;;;;;;;20.50;1.60;;;;;;;;;;5051133;28;20056;-48
2020/12/01 09:10:32;;;;;;;12.25;1.65;;;;;;;;;;5054512;28;20066;-46
2020/12/01 09:13:26;;;;;;;17.35;1.88;;;;;;;;;;5054987;28;20069;-46
2020/12/01 09:16:14;;;;;;;9.50;1.55;;;;;;;;;;5053749;28;20036;-47
2020/12/01 09:18:58;;;;;;;18.60;2.85;;;;;;;;;;5054301;28;20033;-48
2020/12/01 09:24:16;;;;;;;25.25;2.90;;;;;;;;;;5055199;28;20365;-48
2020/12/01 09:26:43;;;;;;;16.52;1.70;;;;;;;;;;5054662;28;20037;-49
2020/12/01 09:29:11;;;;;;;36.78;3.22;;;;;;;;;;5054231;28;20029;-48
2020/12/01 09:31:40;;;;;;;23.58;2.25;;;;;;;;;;5053257;28;20083;-45
2020/12/01 09:34:07;;;;;;;18.33;1.95;;;;;;;;;;5058057;28;20080;-47
2020/12/01 09:36:34;;;;;;;18.00;2.47;;;;;;;;;;5074369;28;20028;-48
2020/12/01 09:39:01;;;;;;;21.70;2.00;;;;;;;;;;5074204;28;20074;-49
2020/12/01 09:41:28;;;;;;;20.25;1.55;;;;;;;;;;5073110;28;20081;-49
2020/12/01 09:44:39;;;;;;;17.92;1.73;;;;;;;;;;5063715;28;20025;-46
2020/12/01 09:47:05;;;;;;;19.65;2.63;;;;;;;;;;5054315;28;20090;-48
2020/12/01 09:49:32;;;;;;;24.03;2.10;;;;;;;;;;5065885;28;20028;-47
2020/12/01 09:52:06;;;;;;;22.25;2.35;;;;;;;;;;5071319;28;20793;-49
2020/12/01 09:54:56;;;;;;;20.25;2.67;;;;;;;;;;5069080;28;20033;-48
2020/12/01 10:11:25;;;;;;;32.15;2.78;;;;;;;;;;5053628;28;20159;-46
2020/12/01 10:17:31;;;;;;;49.65;3.92;;;;;;;;;;5063561;28;20515;-46
2020/12/01 10:36:06;;;;;;;34.08;3.33;;;;;;;;;;5051800;28;20064;-47
2020/12/01 10:38:33;;;;;;;31.85;3.33;;;;;;;;;;5053019;28;20013;-46
2020/12/01 10:41:00;;;;;;;36.78;3.13;;;;;;;;;;5053102;28;20497;-47
2020/12/01 10:43:27;;;;;;;39.15;3.50;;;;;;;;;;5053132;28;20431;-46
2020/12/01 10:45:54;;;;;;;44.35;3.80;;;;;;;;;;5054987;28;20056;-47
2020/12/01 10:48:21;;;;;;;30.92;3.28;;;;;;;;;;5063818;28;20060;-46
2020/12/01 10:50:48;;;;;;;33.28;3.25;;;;;;;;;;5058969;28;20483;-45
2020/12/01 10:53:15;;;;;;;61.70;5.18;;;;;;;;;;5052904;28;20181;-48
2020/12/01 10:55:42;;;;;;;46.78;4.25;;;;;;;;;;5052368;28;20492;-46
2020/12/01 10:58:09;;;;;;;45.45;4.60;;;;;;;;;;5051852;28;20065;-46
2020/12/01 11:00:36;;;;;;;45.65;4.32;;;;;;;;;;5052810;28;20048;-46
2020/12/01 11:03:03;;;;;;;49.15;3.75;;;;;;;;;;5051993;28;20396;-46
2020/12/01 11:05:31;;;;;;;39.05;3.92;;;;;;;;;;5052355;28;20020;-47
2020/12/01 11:07:59;;;;;;;33.40;3.80;;;;;;;;;;5051593;28;20033;-46
2020/12/01 11:10:26;;;;;;;42.40;3.90;;;;;;;;;;5052378;28;20025;-50
2020/12/01 11:12:53;;;;;;;70.32;6.85;;;;;;;;;;5050247;28;20463;-52
2020/12/01 11:15:20;;;;;;;52.05;5.53;;;;;;;;;;5050774;28;20469;-47
2020/12/01 11:17:47;;;;;;;56.05;5.95;;;;;;;;;;5053702;28;20025;-50
2020/12/01 11:20:15;;;;;;;35.67;4.15;;;;;;;;;;5059588;28;20518;-54
2020/12/01 11:22:51;;;;;;;70.00;5.80;;;;;;;;;;5078645;28;20352;-56
2020/12/01 11:25:19;;;;;;;42.60;4.88;;;;;;;;;;5063563;28;20033;-64
2020/12/01 11:27:46;;;;;;;42.97;3.85;;;;;;;;;;5052273;28;20108;-63
2020/12/01 11:30:14;;;;;;;54.03;3.95;;;;;;;;;;5051472;28;20029;-59
2020/12/01 11:32:41;;;;;;;36.42;4.00;;;;;;;;;;5051110;28;20115;-64
2020/12/01 11:35:08;;;;;;;100.65;16.65;;;;;;;;;;5051098;28;20035;-60
2020/12/01 11:37:35;;;;;;;46.58;6.63;;;;;;;;;;5058018;28;20040;-61
2020/12/01 11:40:02;;;;;;;35.35;3.55;;;;;;;;;;5059759;28;20017;-61
2020/12/01 11:42:29;;;;;;;48.65;4.20;;;;;;;;;;5053555;28;20027;-62
2020/12/01 11:44:56;;;;;;;249.02;23.45;;;;;;;;;;5047878;28;20040;-60
2020/12/01 11:47:23;;;;;;;181.25;16.20;;;;;;;;;;5060752;28;20032;-60
2020/12/01 11:49:50;;;;;;;113.07;11.65;;;;;;;;;;5065463;28;20381;-60
2020/12/01 11:52:17;;;;;;;204.32;20.27;;;;;;;;;;5064087;28;20127;-61
2020/12/01 11:54:44;;;;;;;135.43;12.63;;;;;;;;;;5069203;28;20023;-61
2020/12/01 11:57:11;;;;;;;92.50;8.80;;;;;;;;;;5063942;28;20115;-61
2020/12/01 11:59:38;;;;;;;84.95;7.50;;;;;;;;;;5058843;28;20074;-62
2020/12/01 12:02:05;;;;;;;67.15;5.75;;;;;;;;;;5052484;28;20017;-53
2020/12/01 12:04:32;;;;;;;44.28;5.03;;;;;;;;;;5068645;28;20130;-60
2020/12/01 12:07:00;;;;;;;57.78;6.88;;;;;;;;;;5084691;28;20028;-58
2020/12/01 12:09:27;;;;;;;52.67;5.15;;;;;;;;;;5084418;28;20047;-52
2020/12/01 12:11:54;;;;;;;53.58;5.13;;;;;;;;;;5060097;28;20079;-53
2020/12/01 12:14:21;;;;;;;33.95;4.28;;;;;;;;;;5053314;28;20508;-54
2020/12/01 12:16:48;;;;;;;39.45;4.57;;;;;;;;;;5063048;28;20025;-53
2020/12/01 12:19:15;;;;;;;60.80;5.70;;;;;;;;;;5061791;28;20117;-50
2020/12/01 12:21:42;;;;;;;142.02;10.35;;;;;;;;;;5057914;28;20460;-53
2020/12/01 12:24:09;;;;;;;161.30;14.27;;;;;;;;;;5061710;28;20123;-58
2020/12/01 12:26:36;;;;;;;138.20;10.70;;;;;;;;;;5065873;28;20048;-55
2020/12/01 12:29:03;;;;;;;119.85;11.30;;;;;;;;;;5056796;28;20028;-55
2020/12/01 12:31:30;;;;;;;104.35;10.70;;;;;;;;;;5049468;28;20037;-57
2020/12/01 12:33:57;;;;;;;81.03;8.15;;;;;;;;;;5058784;28;20833;-59
2020/12/01 12:36:25;;;;;;;71.85;7.72;;;;;;;;;;5196147;22;20065;-57
2020/12/01 12:38:52;;;;;;;68.70;8.02;;;;;;;;;;5056575;28;20020;-57
2020/12/01 12:41:19;;;;;;;62.38;6.88;;;;;;;;;;5056746;28;20028;-60
2020/12/01 12:43:46;;;;;;;58.90;6.25;;;;;;;;;;5051661;28;20455;-59
2020/12/01 12:46:13;;;;;;;53.67;6.40;;;;;;;;;;5060459;28;20016;-52
2020/12/01 12:48:40;;;;;;;43.17;4.72;;;;;;;;;;5249089;22;20023;-57
2020/12/01 12:51:07;;;;;;;35.00;3.72;;;;;;;;;;5052805;28;20044;-57
2020/12/01 12:53:36;;;;;;;161.93;11.65;;;;;;;;;;5059464;28;20502;-56
2020/12/01 12:56:03;;;;;;;58.63;6.18;;;;;;;;;;5063428;28;20025;-61
2020/12/01 12:58:30;;;;;;;54.25;6.32;;;;;;;;;;5058782;28;20020;-59
2020/12/01 13:00:57;;;;;;;62.45;6.90;;;;;;;;;;5066704;28;20017;-59
2020/12/01 13:03:24;;;;;;;42.85;5.55;;;;;;;;;;5064367;28;20024;-57
2020/12/01 13:05:51;;;;;;;49.45;6.10;;;;;;;;;;5070344;28;20414;-59
2020/12/01 13:08:18;;;;;;;79.55;8.27;;;;;;;;;;5070273;28;20020;-59
2020/12/01 13:10:45;;;;;;;73.60;8.40;;;;;;;;;;5064486;28;20049;-55
2020/12/01 13:13:12;;;;;;;78.78;7.25;;;;;;;;;;5068954;28;20041;-56
2020/12/01 13:15:39;;;;;;;61.63;8.35;;;;;;;;;;5065575;28;20031;-60
2020/12/01 13:18:06;;;;;;;66.45;8.43;;;;;;;;;;5063389;28;20038;-58
2020/12/01 13:20:34;;;;;;;51.78;4.88;;;;;;;;;;5069318;28;20056;-53
2020/12/01 13:23:01;;;;;;;43.40;4.32;;;;;;;;;;5059796;28;20472;-54
2020/12/01 13:25:28;;;;;;;45.55;5.22;;;;;;;;;;5065684;28;20025;-58
2020/12/01 13:27:55;;;;;;;43.85;5.07;;;;;;;;;;5069920;28;20069;-55
2020/12/01 13:30:23;;;;;;;46.65;6.88;;;;;;;;;;5066057;28;20468;-55
2020/12/01 13:32:50;;;;;;;49.83;6.05;;;;;;;;;;5054761;28;20473;-54
2020/12/01 13:35:19;;;;;;;45.33;5.18;;;;;;;;;;5057232;28;20052;-49
2020/12/01 13:37:46;;;;;;;46.45;5.72;;;;;;;;;;5056497;28;20039;-49
2020/12/01 13:40:13;;;;;;;56.70;7.22;;;;;;;;;;5066895;28;20566;-53
2020/12/01 13:42:40;;;;;;;55.55;5.80;;;;;;;;;;5061595;28;20028;-59
2020/12/01 13:45:08;;;;;;;46.28;6.32;;;;;;;;;;5056412;28;20032;-54
2020/12/01 13:47:35;;;;;;;47.88;6.00;;;;;;;;;;5057708;28;20032;-54
2020/12/01 13:50:02;;;;;;;58.97;6.70;;;;;;;;;;5059249;28;20041;-60
2020/12/01 13:52:29;;;;;;;58.00;6.45;;;;;;;;;;5063280;28;20024;-51
2020/12/01 13:54:56;;;;;;;56.28;6.93;;;;;;;;;;5051041;28;20029;-54
2020/12/01 13:57:23;;;;;;;56.35;6.53;;;;;;;;;;5058578;28;20020;-56
2020/12/01 13:59:50;;;;;;;62.65;7.38;;;;;;;;;;5063910;28;20054;-57
2020/12/01 14:02:17;;;;;;;53.88;7.70;;;;;;;;;;5070006;28;20095;-57
2020/12/01 14:04:44;;;;;;;66.03;8.13;;;;;;;;;;5061840;28;20047;-59
2020/12/01 14:07:11;;;;;;;64.72;7.35;;;;;;;;;;5064338;28;20032;-58
2020/12/01 14:09:38;;;;;;;49.38;5.95;;;;;;;;;;5066276;28;20025;-56
2020/12/01 14:12:05;;;;;;;57.45;6.28;;;;;;;;;;5064762;28;20021;-60
2020/12/01 14:14:32;;;;;;;64.65;6.65;;;;;;;;;;5054907;28;20029;-57
2020/12/01 14:17:01;;;;;;;54.92;7.25;;;;;;;;;;5052089;28;20021;-59
2020/12/01 14:19:28;;;;;;;62.60;7.28;;;;;;;;;;5070525;28;20021;-52
2020/12/01 14:21:55;;;;;;;52.17;6.28;;;;;;;;;;5072988;28;20024;-59
2020/12/01 14:24:22;;;;;;;50.15;7.07;;;;;;;;;;5072341;28;20028;-57
2020/12/01 14:26:49;;;;;;;67.05;6.80;;;;;;;;;;5071028;28;20401;-60
2020/12/01 14:29:16;;;;;;;50.47;7.32;;;;;;;;;;5060874;28;20361;-60
2020/12/01 14:31:43;;;;;;;45.88;5.97;;;;;;;;;;5063281;28;20052;-61
2020/12/01 14:34:10;;;;;;;54.33;7.25;;;;;;;;;;5061830;28;20033;-57
2020/12/01 14:36:39;;;;;;;58.00;5.63;;;;;;;;;;5059410;28;20104;-62
2020/12/01 14:39:20;;;;;;;66.60;7.13;;;;;;;;;;5066208;28;20437;-57
2020/12/01 14:42:08;;;;;;;49.00;6.10;;;;;;;;;;5063193;28;20025;-58
2020/12/01 14:44:35;;;;;;;45.45;5.65;;;;;;;;;;5065333;28;20435;-62
2020/12/01 14:47:26;;;;;;;38.25;5.78;;;;;;;;;;5065285;28;20622;-61
2020/12/01 14:50:01;;;;;;;29.38;5.20;;;;;;;;;;5064147;28;20052;-64
2020/12/01 14:52:39;;;;;;;41.47;6.00;;;;;;;;;;5060301;28;20025;-61
2020/12/01 14:55:13;;;;;;;60.58;6.70;;;;;;;;;;5064226;28;20041;-55
2020/12/01 14:57:49;;;;;;;61.33;7.03;;;;;;;;;;5063907;28;20027;-60
2020/12/01 15:00:21;;;;;;;65.55;7.85;;;;;;;;;;5064701;28;20021;-61
2020/12/01 15:02:51;;;;;;;73.47;7.63;;;;;;;;;;5072157;28;20051;-61
2020/12/01 15:05:28;;;;;;;58.88;8.07;;;;;;;;;;5073169;28;20029;-59
2020/12/01 15:08:10;;;;;;;66.13;8.23;;;;;;;;;;5068440;28;20025;-63
2020/12/01 15:10:40;;;;;;;69.13;8.13;;;;;;;;;;5064231;28;20063;-58
2020/12/01 15:13:07;;;;;;;71.22;7.35;;;;;;;;;;5061555;28;20059;-56
2020/12/01 15:15:39;;;;;;;60.63;8.15;;;;;;;;;;5068617;28;20021;-62
2020/12/01 15:18:10;;;;;;;56.35;7.47;;;;;;;;;;5063094;28;20021;-58
2020/12/01 15:20:38;;;;;;;64.70;8.73;;;;;;;;;;5071073;28;20037;-63
2020/12/01 15:23:23;;;;;;;56.78;8.18;;;;;;;;;;5066090;28;20059;-60
2020/12/01 15:25:51;;;;;;;77.60;9.25;;;;;;;;;;5068743;28;20024;-56
2020/12/01 15:28:22;;;;;;;57.90;7.30;;;;;;;;;;5068816;28;20035;-69